Time;durP1;ratioP1;P1;durP2;ratioP2;P2;SDS_P1;SDS_P2;PMS_P1;PMS_P2;Temp;Humidity;BMP_temperature;BMP_pressure;BME280_temperature;BME280_humidity;BME280_pressure;Samples;Min_cycle;Max_cycle;Signal;HPM_P1;HPM_P2
2023/08/22 00:00:28;;;;;;;5.40;1.40;;;17.60;99.90;;;;;;5115191;27;20199;-88
2023/08/22 00:03:02;;;;;;;2.10;1.30;;;17.70;99.90;;;;;;5095786;28;20191;-88
2023/08/22 00:05:33;;;;;;;3.13;1.30;;;17.80;99.90;;;;;;5097231;28;20208;-90
2023/08/22 00:08:05;;;;;;;2.92;1.40;;;18.00;99.90;;;;;;5112513;28;20179;-89
2023/08/22 00:10:36;;;;;;;2.42;1.15;;;18.30;99.90;;;;;;5131611;28;20217;-90
2023/08/22 00:13:07;;;;;;;2.28;1.13;;;18.50;99.90;;;;;;5119502;27;20209;-89
2023/08/22 00:15:39;;;;;;;2.08;1.17;;;18.60;99.90;;;;;;5106781;27;20202;-89
2023/08/22 00:18:12;;;;;;;3.28;1.40;;;18.70;99.90;;;;;;5113444;28;20214;-90
2023/08/22 00:20:44;;;;;;;2.28;1.30;;;18.80;99.90;;;;;;5107607;27;20703;-92
2023/08/22 00:23:15;;;;;;;3.67;1.40;;;18.70;99.90;;;;;;5118888;27;20190;-89
2023/08/22 00:25:46;;;;;;;3.53;1.33;;;18.80;99.90;;;;;;5114538;27;20240;-88
2023/08/22 00:28:17;;;;;;;4.75;1.15;;;18.90;99.90;;;;;;5118680;27;20578;-90
2023/08/22 00:30:48;;;;;;;3.45;1.40;;;19.10;99.90;;;;;;5113012;27;20592;-88
2023/08/22 00:33:22;;;;;;;3.90;1.52;;;19.30;99.90;;;;;;5132501;27;20686;-89
2023/08/22 00:35:53;;;;;;;3.15;1.45;;;19.20;99.90;;;;;;5100429;28;20213;-89
2023/08/22 00:38:25;;;;;;;5.55;1.23;;;19.40;99.90;;;;;;5101727;28;20209;-90
2023/08/22 00:40:56;;;;;;;1.98;1.10;;;19.60;99.90;;;;;;5126944;27;20202;-90
2023/08/22 00:43:27;;;;;;;4.68;1.20;;;19.70;99.90;;;;;;5118154;27;20202;-89
2023/08/22 00:45:58;;;;;;;1.80;1.10;;;19.70;99.90;;;;;;5105573;28;20632;-88
2023/08/22 00:48:33;;;;;;;2.28;1.00;;;19.90;99.90;;;;;;5117188;27;20207;-88
2023/08/22 00:51:04;;;;;;;2.70;1.00;;;20.10;99.90;;;;;;5131127;27;20199;-90
2023/08/22 00:53:35;;;;;;;2.72;1.20;;;20.20;99.90;;;;;;5137067;27;20246;-89
2023/08/22 00:56:06;;;;;;;5.38;1.27;;;20.40;99.90;;;;;;5095285;28;20195;-89
2023/08/22 00:58:39;;;;;;;5.05;1.40;;;20.50;99.90;;;;;;5095323;28;20219;-90
2023/08/22 01:01:12;;;;;;;3.05;1.40;;;20.60;99.90;;;;;;5109720;27;20202;-90
2023/08/22 01:03:45;;;;;;;2.90;1.20;;;20.70;99.90;;;;;;5113251;27;20265;-89
2023/08/22 01:06:25;;;;;;;2.70;1.60;;;20.80;99.90;;;;;;5106083;27;20309;-91
2023/08/22 01:09:00;;;;;;;1.98;1.20;;;20.80;99.90;;;;;;5099493;28;20204;-90
2023/08/22 01:11:37;;;;;;;5.28;1.10;;;21.00;99.90;;;;;;5106854;28;20246;-91
2023/08/22 01:14:12;;;;;;;4.55;1.30;;;21.10;99.90;;;;;;5114926;28;20214;-83
2023/08/22 01:16:44;;;;;;;5.53;1.27;;;21.30;99.90;;;;;;5136735;27;20209;-88
2023/08/22 01:19:19;;;;;;;4.60;1.38;;;21.40;99.90;;;;;;5114177;28;20659;-89
2023/08/22 01:21:54;;;;;;;2.03;1.05;;;21.60;99.90;;;;;;5106546;28;20265;-87
2023/08/22 01:24:25;;;;;;;2.00;1.10;;;21.70;99.90;;;;;;5102611;28;20191;-87
2023/08/22 01:26:56;;;;;;;2.28;1.30;;;21.70;99.90;;;;;;5097178;28;20705;-88
2023/08/22 01:29:34;;;;;;;4.07;1.17;;;21.90;99.90;;;;;;5094574;28;20191;-88
2023/08/22 01:32:12;;;;;;;5.20;1.27;;;22.00;99.90;;;;;;5095788;28;20197;-88
2023/08/22 01:34:45;;;;;;;4.55;1.13;;;22.20;99.90;;;;;;5100428;28;20221;-90
2023/08/22 01:37:22;;;;;;;3.47;1.15;;;22.30;99.90;;;;;;5112212;27;20592;-91
2023/08/22 01:39:56;;;;;;;5.70;1.00;;;22.50;99.90;;;;;;5130672;27;20197;-90
2023/08/22 01:42:28;;;;;;;3.05;1.10;;;22.70;99.90;;;;;;5100945;27;20234;-90
2023/08/22 01:44:58;;;;;;;3.08;1.02;;;22.90;99.90;;;;;;5100375;28;20205;-90
2023/08/22 01:47:30;;;;;;;2.30;1.00;;;23.00;99.90;;;;;;5115460;28;20231;-92
2023/08/22 01:50:03;;;;;;;2.25;0.90;;;23.00;99.90;;;;;;5105102;27;20195;-94
2023/08/22 01:52:37;;;;;;;3.05;1.10;;;23.20;99.90;;;;;;5128110;27;20225;-94
2023/08/22 01:55:10;;;;;;;3.63;1.20;;;23.30;99.90;;;;;;5125457;27;20195;-95
2023/08/22 01:57:43;;;;;;;3.97;1.50;;;23.40;99.90;;;;;;5106164;27;20282;-94
2023/08/22 02:00:16;;;;;;;4.40;1.10;;;23.40;99.90;;;;;;5077360;28;20187;-92
2023/08/22 02:02:47;;;;;;;3.15;1.00;;;23.50;99.90;;;;;;5094118;28;20199;-90
2023/08/22 02:05:18;;;;;;;2.50;1.00;;;23.50;99.90;;;;;;5105415;27;20201;-91
2023/08/22 02:07:52;;;;;;;3.80;0.90;;;23.50;99.90;;;;;;5106590;28;20298;-95
2023/08/22 02:10:24;;;;;;;2.25;1.00;;;23.50;99.90;;;;;;5135922;27;20677;-92
2023/08/22 02:12:55;;;;;;;3.70;1.10;;;23.40;99.90;;;;;;5114449;28;20207;-91
2023/08/22 02:15:26;;;;;;;3.17;0.90;;;23.30;99.90;;;;;;5114447;28;20206;-92
2023/08/22 02:17:57;;;;;;;3.65;1.02;;;23.30;99.90;;;;;;5099513;28;20191;-92
2023/08/22 02:20:30;;;;;;;2.25;0.90;;;23.40;99.90;;;;;;5095619;28;20206;-91
2023/08/22 02:23:04;;;;;;;1.02;0.60;;;23.50;99.90;;;;;;5127312;27;20214;-91
2023/08/22 02:25:36;;;;;;;1.13;0.70;;;23.70;97.90;;;;;;5109634;28;20226;-92
2023/08/22 02:28:09;;;;;;;2.78;0.68;;;24.00;96.60;;;;;;5096730;28;20231;-93
2023/08/22 02:30:43;;;;;;;0.50;0.50;;;24.30;96.70;;;;;;5096773;28;20194;-93
2023/08/22 02:33:14;;;;;;;2.17;0.60;;;24.40;92.30;;;;;;5115497;27;20210;-92
2023/08/22 02:35:45;;;;;;;0.35;0.35;;;24.70;87.80;;;;;;5103748;27;20187;-92
2023/08/22 02:38:19;;;;;;;0.40;0.40;;;24.80;80.60;;;;;;5086180;27;20199;-92
2023/08/22 02:40:50;;;;;;;2.10;0.57;;;25.00;76.80;;;;;;5107773;27;20575;-92
2023/08/22 02:43:22;;;;;;;0.40;0.40;;;25.00;76.30;;;;;;5118060;27;20221;-93
2023/08/22 02:45:56;;;;;;;1.20;0.63;;;25.10;76.10;;;;;;5103594;28;20194;-92
2023/08/22 02:48:27;;;;;;;1.95;0.40;;;25.20;73.60;;;;;;5100445;28;20215;-93
2023/08/22 02:50:58;;;;;;;0.90;0.50;;;25.30;65.30;;;;;;5085806;28;20231;-96
2023/08/22 02:53:32;;;;;;;1.20;0.65;;;25.30;67.10;;;;;;5120056;28;20538;-93
2023/08/22 02:56:04;;;;;;;1.60;0.60;;;25.40;64.70;;;;;;5105441;28;20238;-91
2023/08/22 02:58:36;;;;;;;0.80;0.80;;;25.70;65.00;;;;;;5120582;28;20203;-91
2023/08/22 03:01:11;;;;;;;1.52;0.70;;;25.80;63.80;;;;;;5103547;28;20220;-93
2023/08/22 03:03:43;;;;;;;0.82;0.52;;;25.90;59.10;;;;;;5111465;28;20190;-92
2023/08/22 03:06:15;;;;;;;1.55;0.90;;;26.00;56.10;;;;;;5112973;28;20250;-92
2023/08/22 03:08:51;;;;;;;1.52;0.80;;;25.90;54.40;;;;;;5126749;28;20234;-91
2023/08/22 03:11:22;;;;;;;1.02;0.30;;;26.00;52.70;;;;;;5101830;27;20205;-91
2023/08/22 03:13:53;;;;;;;0.55;0.55;;;26.00;51.60;;;;;;5119802;28;20200;-89
2023/08/22 03:16:23;;;;;;;1.48;0.40;;;26.10;51.40;;;;;;5104373;28;20187;-89
2023/08/22 03:18:54;;;;;;;0.40;0.40;;;26.10;50.50;;;;;;5130933;27;20203;-88
2023/08/22 03:21:29;;;;;;;0.30;0.30;;;26.00;50.40;;;;;;5121952;27;20229;-94
2023/08/22 03:24:03;;;;;;;0.30;0.30;;;25.90;48.50;;;;;;5131804;27;20202;-92
2023/08/22 03:26:33;;;;;;;0.45;0.32;;;25.80;49.50;;;;;;5135764;27;20211;-90
2023/08/22 03:29:04;;;;;;;0.85;0.50;;;25.60;49.00;;;;;;5129059;27;20236;-92
2023/08/22 03:31:35;;;;;;;0.28;0.28;;;25.40;48.30;;;;;;5117366;28;20183;-91
2023/08/22 03:34:06;;;;;;;0.40;0.40;;;25.20;49.10;;;;;;5121385;28;20185;-91
2023/08/22 03:36:39;;;;;;;0.40;0.40;;;25.20;50.60;;;;;;5132889;27;20645;-91
2023/08/22 03:39:13;;;;;;;0.22;0.22;;;25.10;50.20;;;;;;5116858;27;20198;-91
2023/08/22 03:41:44;;;;;;;0.38;0.38;;;25.10;50.00;;;;;;5133719;27;20201;-92
2023/08/22 03:44:16;;;;;;;0.45;0.40;;;25.00;50.90;;;;;;5123897;27;20226;-94
2023/08/22 03:46:58;;;;;;;0.43;0.40;;;25.00;52.20;;;;;;5143417;27;20186;-92
2023/08/22 03:49:30;;;;;;;0.30;0.30;;;25.00;52.90;;;;;;5112079;27;20292;-91
2023/08/22 03:52:01;;;;;;;0.40;0.40;;;25.00;53.60;;;;;;5104278;28;20179;-90
2023/08/22 03:54:36;;;;;;;2.25;0.43;;;25.00;53.30;;;;;;5105266;27;20211;-90
2023/08/22 03:57:13;;;;;;;0.57;0.43;;;24.90;53.60;;;;;;5100008;28;20205;-95
2023/08/22 03:59:53;;;;;;;0.45;0.30;;;24.90;53.30;;;;;;5136646;27;20195;-85
2023/08/22 04:02:38;;;;;;;2.25;1.05;;;25.00;55.00;;;;;;5111235;28;20342;-91
2023/08/22 04:05:11;;;;;;;5.03;1.13;;;25.00;62.70;;;;;;5096503;28;20215;-95
2023/08/22 04:07:44;;;;;;;3.90;1.10;;;25.00;71.20;;;;;;5105377;27;20653;-91
2023/08/22 04:10:19;;;;;;;6.35;1.33;;;24.80;77.40;;;;;;5105787;27;20199;-93
2023/08/22 04:15:35;;;;;;;5.35;1.38;;;24.40;82.90;;;;;;5135916;27;20211;-91
2023/08/22 04:18:07;;;;;;;2.85;1.20;;;24.30;84.90;;;;;;5114130;27;20236;-93
2023/08/22 04:20:38;;;;;;;2.85;0.93;;;24.10;87.70;;;;;;5118275;28;20195;-93
2023/08/22 04:23:09;;;;;;;3.10;0.70;;;24.10;87.60;;;;;;5115030;28;20253;-92
2023/08/22 04:25:45;;;;;;;2.10;0.70;;;24.00;81.60;;;;;;5130414;27;20222;-93
2023/08/22 04:28:24;;;;;;;2.10;0.80;;;24.00;82.80;;;;;;5120105;27;20243;-95
2023/08/22 04:30:59;;;;;;;2.40;0.77;;;24.00;82.30;;;;;;5107974;27;20210;-94
2023/08/22 04:33:31;;;;;;;3.08;0.80;;;24.00;85.60;;;;;;5102827;28;20286;-93
2023/08/22 04:36:02;;;;;;;3.80;1.02;;;24.00;87.10;;;;;;5130205;27;20222;-93
2023/08/22 04:38:35;;;;;;;2.58;0.93;;;24.00;86.40;;;;;;5091387;28;20260;-94
2023/08/22 04:41:09;;;;;;;3.53;0.80;;;24.00;87.30;;;;;;5104329;27;20237;-92
2023/08/22 04:43:40;;;;;;;1.30;0.80;;;24.00;85.90;;;;;;5109496;28;20199;-91
2023/08/22 04:46:11;;;;;;;1.27;0.60;;;24.00;86.60;;;;;;5098378;28;20201;-93
2023/08/22 04:48:44;;;;;;;1.48;0.70;;;24.00;86.60;;;;;;5104315;27;20209;-95
2023/08/22 04:51:16;;;;;;;1.55;0.80;;;24.20;86.00;;;;;;5131255;27;20194;-91
2023/08/22 04:53:48;;;;;;;1.13;0.80;;;24.20;85.80;;;;;;5116043;27;20568;-94
2023/08/22 04:56:22;;;;;;;1.15;0.90;;;24.30;84.80;;;;;;5102764;27;20699;-92
2023/08/22 05:07:42;;;;;;;2.75;0.70;;;24.20;81.90;;;;;;5022844;23;20233;-90
2023/08/22 05:10:13;;;;;;;0.93;0.65;;;24.30;82.70;;;;;;5009905;28;20260;-90
2023/08/22 05:12:48;;;;;;;2.65;0.90;;;24.20;83.00;;;;;;5014373;28;20205;-90
2023/08/22 05:15:20;;;;;;;2.65;0.88;;;24.20;82.90;;;;;;5015175;28;20284;-90
2023/08/22 05:17:51;;;;;;;1.83;0.88;;;24.30;81.80;;;;;;5013496;28;20286;-89
2023/08/22 05:20:22;;;;;;;3.55;1.02;;;24.20;82.40;;;;;;5018501;28;20202;-91
2023/08/22 05:22:53;;;;;;;1.95;0.90;;;24.20;84.70;;;;;;5017276;28;20194;-90
2023/08/22 05:25:24;;;;;;;2.35;0.80;;;24.10;85.90;;;;;;5014619;28;20210;-91
2023/08/22 05:27:58;;;;;;;3.58;1.02;;;23.90;87.80;;;;;;5019341;28;20224;-92
2023/08/22 05:30:30;;;;;;;1.65;0.80;;;23.80;88.50;;;;;;5019215;28;20241;-92
2023/08/22 05:33:01;;;;;;;2.33;1.00;;;23.70;88.60;;;;;;5025154;28;20294;-90
2023/08/22 05:35:32;;;;;;;1.52;0.90;;;23.60;89.00;;;;;;5017836;28;20218;-89
2023/08/22 05:38:04;;;;;;;1.70;0.90;;;23.50;89.10;;;;;;5018563;28;20198;-89
2023/08/22 05:40:37;;;;;;;2.97;1.00;;;23.50;89.40;;;;;;5007347;28;20202;-90
2023/08/22 05:43:12;;;;;;;2.33;0.90;;;23.40;90.00;;;;;;5019350;28;20179;-89
2023/08/22 05:45:43;;;;;;;5.47;1.10;;;23.30;89.90;;;;;;5020007;28;20655;-91
2023/08/22 05:48:14;;;;;;;3.35;0.88;;;23.20;89.70;;;;;;5010422;28;20268;-90
2023/08/22 05:50:48;;;;;;;2.33;1.05;;;23.20;89.30;;;;;;5008520;28;20228;-91
2023/08/22 05:53:19;;;;;;;1.33;0.95;;;23.20;89.50;;;;;;5015967;28;20209;-92
2023/08/22 05:55:50;;;;;;;1.15;0.90;;;23.20;90.10;;;;;;5006670;28;20194;-90
2023/08/22 05:58:23;;;;;;;2.85;1.10;;;23.20;90.00;;;;;;5015460;28;20186;-90
2023/08/22 06:00:55;;;;;;;1.58;1.05;;;23.10;90.10;;;;;;5015634;28;20209;-90
2023/08/22 06:03:27;;;;;;;3.28;1.00;;;23.10;90.50;;;;;;5009865;28;20211;-89
2023/08/22 06:05:58;;;;;;;4.25;1.30;;;23.10;90.80;;;;;;5032997;28;20305;-90
2023/08/22 06:09:02;;;;;;;1.85;0.90;;;23.00;91.10;;;;;;5004822;28;20719;-85
2023/08/22 06:11:33;;;;;;;2.17;0.90;;;22.90;90.70;;;;;;5009696;28;20205;-89
2023/08/22 06:14:08;;;;;;;2.38;1.00;;;22.80;90.80;;;;;;5030091;28;20202;-87
2023/08/22 06:16:39;;;;;;;2.97;0.98;;;22.70;91.10;;;;;;5008999;28;20227;-91
2023/08/22 06:19:11;;;;;;;3.17;1.00;;;22.70;90.70;;;;;;5014167;28;20194;-89
2023/08/22 06:21:42;;;;;;;1.58;0.88;;;22.60;90.70;;;;;;5011816;28;20206;-89
2023/08/22 06:24:34;;;;;;;1.38;0.90;;;22.60;90.30;;;;;;5021789;28;20202;-90
2023/08/22 06:27:05;;;;;;;2.42;1.00;;;22.70;89.30;;;;;;5019056;28;20623;-90
2023/08/22 06:29:40;;;;;;;1.25;0.85;;;22.60;88.60;;;;;;5020219;28;20241;-90
2023/08/22 06:32:11;;;;;;;3.85;1.08;;;22.70;87.10;;;;;;5014686;28;20197;-90
2023/08/22 06:34:42;;;;;;;3.13;1.02;;;22.60;86.40;;;;;;5014324;28;20200;-91
2023/08/22 06:37:14;;;;;;;3.20;1.10;;;22.60;86.20;;;;;;5013938;28;20210;-91
2023/08/22 06:39:45;;;;;;;1.60;0.90;;;22.50;86.50;;;;;;5014453;28;20194;-91
2023/08/22 06:42:17;;;;;;;1.70;1.10;;;22.50;86.70;;;;;;5014311;28;20194;-90
2023/08/22 06:44:51;;;;;;;4.93;1.30;;;22.40;87.20;;;;;;5011615;28;20210;-89
2023/08/22 06:47:22;;;;;;;2.05;1.05;;;22.60;87.00;;;;;;4997404;28;20670;-91
2023/08/22 06:49:54;;;;;;;2.92;1.33;;;22.60;86.70;;;;;;5004291;28;20230;-90
2023/08/22 06:52:25;;;;;;;2.20;1.27;;;22.60;87.60;;;;;;5007726;28;20227;-89
2023/08/22 06:54:57;;;;;;;2.72;1.08;;;22.60;87.30;;;;;;5007528;28;20190;-90
2023/08/22 06:57:31;;;;;;;3.58;1.10;;;22.50;87.70;;;;;;5013996;28;20618;-92
2023/08/22 07:00:13;;;;;;;3.75;1.30;;;22.50;88.50;;;;;;5010110;28;20212;-90
2023/08/22 07:02:45;;;;;;;2.60;1.25;;;22.30;89.80;;;;;;5016827;28;20285;-90
2023/08/22 07:05:17;;;;;;;3.28;1.02;;;22.30;90.30;;;;;;5001813;28;20207;-91
2023/08/22 07:07:50;;;;;;;2.92;1.45;;;22.20;90.70;;;;;;5004879;28;20788;-96
2023/08/22 07:10:24;;;;;;;4.25;1.30;;;22.10;91.40;;;;;;5016965;28;20263;-89
2023/08/22 07:12:55;;;;;;;3.88;1.27;;;22.10;92.20;;;;;;5016149;28;20297;-92
2023/08/22 07:15:30;;;;;;;1.75;1.00;;;21.90;93.00;;;;;;5010559;28;20278;-88
2023/08/22 07:18:01;;;;;;;3.88;1.13;;;21.90;93.50;;;;;;5012392;28;20195;-88
2023/08/22 07:20:31;;;;;;;2.20;1.30;;;21.80;94.50;;;;;;5011739;28;20198;-87
2023/08/22 07:23:04;;;;;;;1.33;0.90;;;21.60;95.60;;;;;;5014331;28;20288;-88
2023/08/22 07:25:35;;;;;;;1.23;1.00;;;21.60;96.50;;;;;;5012855;28;20218;-89
2023/08/22 07:28:08;;;;;;;4.35;1.35;;;21.50;97.40;;;;;;5025772;28;20185;-89
2023/08/22 07:30:42;;;;;;;3.17;1.20;;;21.50;98.20;;;;;;5028739;28;20677;-89
2023/08/22 07:33:12;;;;;;;3.33;1.10;;;21.40;98.80;;;;;;5023503;28;20186;-89
2023/08/22 07:35:44;;;;;;;3.83;1.60;;;21.30;99.70;;;;;;5035391;28;20205;-88
2023/08/22 07:38:15;;;;;;;3.92;1.20;;;21.30;99.90;;;;;;5036089;28;20208;-89
2023/08/22 07:40:46;;;;;;;2.55;1.35;;;21.30;99.90;;;;;;5038484;28;20258;-86
2023/08/22 07:43:18;;;;;;;1.40;1.15;;;21.20;99.90;;;;;;5032792;28;20190;-88
2023/08/22 07:45:55;;;;;;;3.28;1.20;;;21.10;99.90;;;;;;5026275;28;20611;-88
2023/08/22 07:48:27;;;;;;;4.82;1.50;;;21.00;99.90;;;;;;5025006;28;20205;-88
2023/08/22 07:51:00;;;;;;;2.00;1.20;;;21.00;99.90;;;;;;5033264;28;20186;-92
2023/08/22 07:53:31;;;;;;;2.58;1.27;;;20.90;99.90;;;;;;5027791;28;20187;-89
2023/08/22 07:56:06;;;;;;;2.38;1.10;;;20.90;99.90;;;;;;5016676;28;20191;-91
2023/08/22 07:58:37;;;;;;;2.28;1.20;;;20.80;99.90;;;;;;5019074;28;20273;-91
2023/08/22 08:01:12;;;;;;;6.22;1.67;;;20.80;99.90;;;;;;5030378;28;20194;-91
2023/08/22 08:03:43;;;;;;;3.88;1.30;;;20.80;99.90;;;;;;5044693;28;20220;-92
2023/08/22 08:06:15;;;;;;;2.25;1.08;;;20.70;99.90;;;;;;5060001;28;20295;-92
2023/08/22 08:08:46;;;;;;;2.20;1.33;;;20.70;99.90;;;;;;5046930;28;20226;-91
2023/08/22 08:11:17;;;;;;;3.20;1.27;;;20.70;99.90;;;;;;5037535;28;20246;-90
2023/08/22 08:13:48;;;;;;;3.13;1.40;;;20.70;99.90;;;;;;5032056;28;20751;-92
2023/08/22 08:16:22;;;;;;;2.17;1.20;;;20.60;99.90;;;;;;5024049;28;20198;-91
2023/08/22 08:18:54;;;;;;;3.63;1.48;;;20.60;99.90;;;;;;5022571;28;20248;-91
2023/08/22 08:21:25;;;;;;;2.72;1.00;;;20.60;99.90;;;;;;5024184;28;20198;-90
2023/08/22 08:23:56;;;;;;;1.60;1.42;;;20.60;99.90;;;;;;5022806;28;20199;-92
2023/08/22 08:26:27;;;;;;;3.00;1.65;;;20.50;99.90;;;;;;5036128;28;20215;-92
2023/08/22 08:29:02;;;;;;;3.63;1.60;;;20.50;99.90;;;;;;5033421;28;20249;-92
2023/08/22 08:31:38;;;;;;;2.65;1.60;;;20.50;99.90;;;;;;5014840;28;20198;-89
2023/08/22 08:34:12;;;;;;;2.53;1.40;;;20.40;99.90;;;;;;5032332;28;20198;-90
2023/08/22 08:36:43;;;;;;;3.30;1.50;;;20.40;99.90;;;;;;5027648;28;20197;-90
2023/08/22 08:39:25;;;;;;;5.38;1.55;;;20.30;99.90;;;;;;5027540;28;20202;-89
2023/08/22 08:42:04;;;;;;;1.95;1.60;;;20.30;99.90;;;;;;5025815;28;20197;-90
2023/08/22 08:44:40;;;;;;;3.88;1.88;;;20.30;99.90;;;;;;5023777;28;20229;-90
2023/08/22 08:47:13;;;;;;;3.47;1.55;;;20.30;99.90;;;;;;5021555;28;20209;-89
2023/08/22 08:49:45;;;;;;;2.35;1.45;;;20.30;99.90;;;;;;5020485;28;20210;-89
2023/08/22 08:52:16;;;;;;;2.67;1.60;;;20.30;99.90;;;;;;5033917;28;20261;-87
2023/08/22 08:54:50;;;;;;;2.33;1.45;;;20.30;99.90;;;;;;5027869;28;20243;-89
2023/08/22 08:57:22;;;;;;;2.50;1.50;;;20.30;99.90;;;;;;5016497;28;20625;-89
2023/08/22 08:59:53;;;;;;;3.05;1.67;;;20.30;99.90;;;;;;5011387;28;20194;-89
2023/08/22 09:02:29;;;;;;;3.47;2.22;;;20.30;99.90;;;;;;5016140;28;20221;-89
2023/08/22 09:05:01;;;;;;;7.55;4.78;;;20.30;99.90;;;;;;5011343;28;20284;-90
2023/08/22 09:07:32;;;;;;;5.40;4.90;;;20.30;99.90;;;;;;5013189;28;20248;-88
2023/08/22 09:10:12;;;;;;;4.40;2.10;;;20.30;99.90;;;;;;5012205;28;20217;-89
2023/08/22 09:12:43;;;;;;;3.78;1.50;;;20.30;99.90;;;;;;5014271;28;20204;-88
2023/08/22 09:18:47;;;;;;;4.18;1.55;;;20.30;99.90;;;;;;4928774;28;20264;-90
2023/08/22 09:24:23;;;;;;;4.05;2.08;;;20.30;99.90;;;;;;4979869;28;20297;-88
2023/08/22 09:26:54;;;;;;;5.20;2.00;;;20.40;99.90;;;;;;5012242;28;20226;-88
2023/08/22 09:29:32;;;;;;;3.22;1.60;;;20.40;99.90;;;;;;5012195;28;20751;-88
2023/08/22 09:32:07;;;;;;;1.42;1.08;;;20.40;99.90;;;;;;5007385;28;20197;-88
2023/08/22 09:34:42;;;;;;;3.85;1.23;;;20.40;99.90;;;;;;5017634;28;20207;-87
2023/08/22 09:37:13;;;;;;;3.15;1.63;;;20.30;99.90;;;;;;4990037;28;20200;-87
2023/08/22 09:39:57;;;;;;;1.52;1.30;;;20.30;99.90;;;;;;5011682;28;20190;-87
2023/08/22 09:42:30;;;;;;;3.35;1.50;;;20.40;99.90;;;;;;5004451;28;20191;-89
2023/08/22 09:45:02;;;;;;;1.83;1.40;;;20.50;99.90;;;;;;5011349;28;20623;-88
2023/08/22 09:47:34;;;;;;;2.92;1.92;;;20.70;96.10;;;;;;5004994;28;20194;-87
2023/08/22 09:50:09;;;;;;;3.30;1.80;;;20.90;95.50;;;;;;5011577;28;20329;-89
2023/08/22 09:52:41;;;;;;;1.88;1.20;;;21.00;95.60;;;;;;5013957;28;20202;-87
2023/08/22 09:55:18;;;;;;;3.53;1.80;;;20.90;96.60;;;;;;5011983;28;20204;-88
2023/08/22 09:57:50;;;;;;;2.15;1.52;;;20.90;97.90;;;;;;5016161;28;20213;-87
2023/08/22 10:00:21;;;;;;;3.90;1.95;;;20.80;99.90;;;;;;5013607;28;20225;-88
2023/08/22 10:02:52;;;;;;;2.60;2.20;;;20.80;99.90;;;;;;5008422;28;20249;-88
2023/08/22 10:05:27;;;;;;;2.83;2.10;;;20.60;99.90;;;;;;4994898;28;20206;-88
2023/08/22 10:07:59;;;;;;;3.28;1.40;;;20.60;99.90;;;;;;5021114;28;20227;-87
2023/08/22 10:10:32;;;;;;;2.88;1.40;;;20.50;99.90;;;;;;5021685;28;20249;-92
2023/08/22 10:13:06;;;;;;;2.00;1.38;;;20.50;99.90;;;;;;5031575;28;20212;-88
2023/08/22 10:15:39;;;;;;;2.33;1.30;;;20.50;99.90;;;;;;5006867;28;20236;-87
2023/08/22 10:18:10;;;;;;;2.35;1.48;;;20.40;99.90;;;;;;5015200;28;20272;-87
2023/08/22 10:20:46;;;;;;;2.22;1.42;;;20.40;99.90;;;;;;5012856;28;20683;-88
2023/08/22 10:23:19;;;;;;;2.65;1.70;;;20.40;99.90;;;;;;4991205;28;20201;-87
2023/08/22 10:25:51;;;;;;;2.10;1.38;;;20.40;99.90;;;;;;5015260;28;20198;-88
2023/08/22 10:28:22;;;;;;;1.50;1.10;;;20.30;99.90;;;;;;5014743;28;20206;-88
2023/08/22 10:31:08;;;;;;;3.20;1.30;;;20.30;99.90;;;;;;5013645;28;20237;-88
2023/08/22 10:33:41;;;;;;;2.47;1.13;;;20.20;99.90;;;;;;5013668;28;20204;-88
2023/08/22 10:36:19;;;;;;;1.70;1.50;;;20.20;99.90;;;;;;5008505;28;20216;-88
2023/08/22 10:39:03;;;;;;;2.58;1.35;;;20.20;99.90;;;;;;5011915;28;20202;-87
2023/08/22 10:41:48;;;;;;;1.95;1.30;;;20.10;99.90;;;;;;5014299;28;20643;-87
2023/08/22 10:44:30;;;;;;;1.67;1.30;;;20.10;99.90;;;;;;5007981;28;20281;-87
2023/08/22 10:47:08;;;;;;;2.03;1.15;;;20.10;99.90;;;;;;5013467;28;20202;-88
2023/08/22 10:49:44;;;;;;;3.13;1.30;;;20.10;99.90;;;;;;4996928;28;20224;-87
2023/08/22 10:52:19;;;;;;;1.55;1.15;;;20.10;99.90;;;;;;5011161;28;20197;-87
2023/08/22 10:55:10;;;;;;;2.22;1.38;;;20.00;99.90;;;;;;5007792;28;20276;-89
2023/08/22 10:57:41;;;;;;;1.65;1.33;;;20.00;99.90;;;;;;5014360;28;20198;-89
2023/08/22 11:00:28;;;;;;;2.13;1.40;;;20.10;99.90;;;;;;5022290;28;20277;-89
2023/08/22 11:03:04;;;;;;;3.28;1.30;;;20.10;99.90;;;;;;5031553;28;20200;-89
2023/08/22 11:05:36;;;;;;;1.98;1.10;;;20.10;99.90;;;;;;5024210;28;20575;-89
2023/08/22 11:08:11;;;;;;;1.73;1.35;;;20.10;99.90;;;;;;5018896;28;20288;-89
2023/08/22 11:10:59;;;;;;;1.67;1.27;;;20.10;99.90;;;;;;5031634;28;20214;-90
2023/08/22 11:13:52;;;;;;;2.47;1.48;;;20.10;99.90;;;;;;5019315;28;20199;-89
2023/08/22 11:16:24;;;;;;;3.05;1.48;;;20.10;99.90;;;;;;5019920;28;20205;-89
2023/08/22 11:19:00;;;;;;;2.13;1.25;;;20.10;99.90;;;;;;5029539;28;20201;-89
2023/08/22 11:21:33;;;;;;;2.53;1.50;;;20.00;99.90;;;;;;5011037;28;20202;-90
2023/08/22 11:24:07;;;;;;;3.65;1.67;;;20.00;99.90;;;;;;5013430;28;20193;-89
2023/08/22 11:26:38;;;;;;;3.22;1.48;;;19.90;99.90;;;;;;5017380;28;20228;-89
2023/08/22 11:29:11;;;;;;;2.75;1.40;;;19.90;99.90;;;;;;5016619;28;20260;-89
2023/08/22 11:31:52;;;;;;;2.00;1.42;;;19.90;99.90;;;;;;5008279;28;20197;-90
2023/08/22 11:34:26;;;;;;;4.82;1.52;;;19.80;99.90;;;;;;5012725;28;20305;-88
2023/08/22 11:37:02;;;;;;;2.58;1.63;;;19.90;99.90;;;;;;5032695;28;20190;-88
2023/08/22 11:43:28;;;;;;;2.83;1.80;;;19.90;99.90;;;;;;5027403;28;20212;-89
2023/08/22 11:46:17;;;;;;;2.83;1.38;;;19.90;99.90;;;;;;5037405;28;20185;-89
2023/08/22 11:48:48;;;;;;;3.78;1.58;;;19.90;99.90;;;;;;5063484;23;20883;-88
2023/08/22 11:51:31;;;;;;;2.63;1.60;;;20.00;99.90;;;;;;4992307;28;20215;-90
2023/08/22 11:56:56;;;;;;;2.55;1.48;;;19.90;99.90;;;;;;4989785;28;20203;-91
2023/08/22 11:59:31;;;;;;;4.55;1.75;;;19.90;99.90;;;;;;4992271;28;20235;-90
2023/08/22 12:02:13;;;;;;;5.30;1.60;;;19.90;99.90;;;;;;5074220;23;20225;-89
2023/08/22 12:07:58;;;;;;;4.00;1.52;;;19.90;99.90;;;;;;5024726;28;20196;-93
2023/08/22 12:11:07;;;;;;;4.93;2.08;;;19.90;99.90;;;;;;5013820;23;20243;-90
2023/08/22 12:13:56;;;;;;;3.53;1.90;;;19.90;99.90;;;;;;4991386;28;20187;-90
2023/08/22 12:16:31;;;;;;;2.75;1.80;;;19.90;99.90;;;;;;4976531;28;20183;-92
2023/08/22 12:24:41;;;;;;;3.55;1.67;;;19.90;99.90;;;;;;5167868;23;20243;-89
2023/08/22 12:27:16;;;;;;;4.55;1.70;;;19.80;99.90;;;;;;5076511;28;20651;-91
2023/08/22 12:29:59;;;;;;;3.63;1.52;;;19.70;99.90;;;;;;5086878;28;20205;-89
2023/08/22 12:38:11;;;;;;;4.35;1.50;;;19.20;99.90;;;;;;5098842;28;20176;-84
2023/08/22 12:40:55;;;;;;;2.85;1.83;;;19.10;99.90;;;;;;5082738;28;20321;-90
2023/08/22 12:46:54;;;;;;;3.65;1.48;;;18.90;99.90;;;;;;5086168;28;20196;-91
2023/08/22 12:56:00;;;;;;;2.15;1.38;;;18.70;99.90;;;;;;5072299;28;20203;-88
2023/08/22 12:59:20;;;;;;;2.95;1.90;;;18.70;99.90;;;;;;5176713;22;20239;-89
2023/08/22 13:02:26;;;;;;;4.32;1.50;;;18.70;99.90;;;;;;5072373;28;20573;-90
2023/08/22 13:08:36;;;;;;;1.38;1.05;;;18.40;99.90;;;;;;5076541;28;20193;-88
2023/08/22 13:11:12;;;;;;;4.60;1.27;;;18.40;99.90;;;;;;5069120;28;20594;-88
2023/08/22 13:13:43;;;;;;;3.88;1.17;;;18.40;99.90;;;;;;5064509;28;20556;-88
2023/08/22 13:16:17;;;;;;;2.28;1.00;;;18.40;99.90;;;;;;5064265;28;20233;-88
2023/08/22 13:18:49;;;;;;;4.03;1.13;;;18.30;99.90;;;;;;5063120;28;20194;-87
2023/08/22 13:21:27;;;;;;;2.30;1.23;;;18.30;99.90;;;;;;5060709;28;20196;-88
2023/08/22 13:24:00;;;;;;;2.42;1.15;;;18.30;99.90;;;;;;5060367;28;20204;-87
2023/08/22 13:26:33;;;;;;;4.15;1.20;;;18.30;99.90;;;;;;5062683;28;20659;-90
2023/08/22 13:29:05;;;;;;;3.45;1.20;;;18.30;99.90;;;;;;5041262;28;20199;-85
2023/08/22 13:31:36;;;;;;;4.05;1.40;;;18.30;99.90;;;;;;5043285;28;20211;-88
2023/08/22 13:34:08;;;;;;;3.40;1.20;;;18.20;99.90;;;;;;5058459;28;20219;-84
2023/08/22 13:36:42;;;;;;;3.47;1.33;;;18.20;99.90;;;;;;5063337;28;20197;-88
2023/08/22 13:39:15;;;;;;;4.18;1.35;;;18.30;99.90;;;;;;5061068;28;20206;-86
2023/08/22 13:41:46;;;;;;;5.70;1.70;;;18.30;99.90;;;;;;5064553;28;20200;-85
2023/08/22 13:44:23;;;;;;;4.88;1.20;;;18.30;99.90;;;;;;5056185;28;20189;-89
2023/08/22 13:46:54;;;;;;;4.50;1.42;;;18.30;99.90;;;;;;5063947;28;20473;-89
2023/08/22 13:49:27;;;;;;;5.00;1.38;;;18.30;99.90;;;;;;5060582;28;20199;-86
2023/08/22 13:52:01;;;;;;;6.43;1.38;;;18.30;99.90;;;;;;5057091;28;20220;-87
2023/08/22 13:57:25;;;;;;;4.80;1.55;;;18.20;99.90;;;;;;5062443;28;20228;-89
2023/08/22 13:59:57;;;;;;;7.25;1.60;;;18.20;99.90;;;;;;5063170;28;20224;-89
2023/08/22 14:02:28;;;;;;;5.00;1.40;;;18.20;99.90;;;;;;5059960;28;20196;-89
2023/08/22 14:04:59;;;;;;;8.25;1.98;;;18.10;99.90;;;;;;5029870;28;20201;-88
2023/08/22 14:07:32;;;;;;;13.73;1.83;;;18.20;99.90;;;;;;5048642;28;20197;-87
2023/08/22 14:10:03;;;;;;;11.23;1.88;;;18.10;99.90;;;;;;5046175;28;20196;-88
2023/08/22 14:12:36;;;;;;;10.38;1.90;;;18.00;99.90;;;;;;5047732;28;20209;-87
2023/08/22 14:15:07;;;;;;;7.85;1.77;;;17.90;99.90;;;;;;5044645;28;20189;-90